Time;durP1;ratioP1;P1;durP2;ratioP2;P2;SDS_P1;SDS_P2;PMS_P1;PMS_P2;Temp;Humidity;BMP_temperature;BMP_pressure;BME280_temperature;BME280_humidity;BME280_pressure;Samples;Min_cycle;Max_cycle;Signal;HPM_P1;HPM_P2
2023/04/22 00:01:14;;;;;;;;;;;;;;;9.46;74.93;101290.25;4994586;28;19913;-70
2023/04/22 00:03:40;;;;;;;;;;;;;;;9.47;75.59;101291.94;4995119;28;19914;-69
2023/04/22 00:06:06;;;;;;;;;;;;;;;9.45;75.05;101291.25;4994857;28;19914;-73
2023/04/22 00:08:31;;;;;;;;;;;;;;;9.43;75.03;101290.53;4993954;28;19914;-70
2023/04/22 00:10:57;;;;;;;;;;;;;;;9.39;75.26;101283.84;4993593;28;20021;-69
2023/04/22 00:13:22;;;;;;;;;;;;;;;9.39;75.85;101285.66;4993363;28;19953;-70
2023/04/22 00:15:47;;;;;;;;;;;;;;;9.37;75.17;101280.50;4996061;28;19920;-71
2023/04/22 00:18:13;;;;;;;;;;;;;;;9.36;74.95;101278.81;4994830;28;19968;-70
2023/04/22 00:20:42;;;;;;;;;;;;;;;9.32;75.34;101280.91;5000686;28;19913;-70
2023/04/22 00:23:08;;;;;;;;;;;;;;;9.29;75.12;101285.69;4997125;28;19961;-69
2023/04/22 00:25:33;;;;;;;;;;;;;;;9.29;75.56;101275.03;4993176;28;20390;-70
2023/04/22 00:27:58;;;;;;;;;;;;;;;9.30;75.19;101276.72;5007622;28;19936;-69
2023/04/22 00:30:24;;;;;;;;;;;;;;;9.30;76.38;101274.91;5018092;28;19934;-70
2023/04/22 00:32:49;;;;;;;;;;;;;;;9.31;76.01;101275.75;5006581;28;20433;-68
2023/04/22 00:35:14;;;;;;;;;;;;;;;9.34;74.98;101275.47;4994539;28;19914;-69
2023/04/22 00:37:40;;;;;;;;;;;;;;;9.39;74.94;101283.00;4996261;28;19961;-71
2023/04/22 00:40:05;;;;;;;;;;;;;;;9.39;75.73;101288.31;4997931;28;20416;-69
2023/04/22 00:42:31;;;;;;;;;;;;;;;9.42;75.40;101283.56;4980213;28;19937;-70
2023/04/22 00:44:57;;;;;;;;;;;;;;;9.44;74.93;101272.78;4996874;28;20354;-71
2023/04/22 00:47:25;;;;;;;;;;;;;;;9.46;74.03;101274.31;4996622;28;20452;-70
2023/04/22 00:49:50;;;;;;;;;;;;;;;9.49;73.87;101284.66;4996676;28;19921;-70
2023/04/22 00:52:16;;;;;;;;;;;;;;;9.49;74.59;101267.84;4996354;28;19914;-70
2023/04/22 00:54:41;;;;;;;;;;;;;;;9.47;74.16;101278.63;4996569;28;19918;-71
2023/04/22 00:57:07;;;;;;;;;;;;;;;9.45;75.05;101267.31;4996231;28;19921;-70
2023/04/22 00:59:32;;;;;;;;;;;;;;;9.46;74.22;101268.16;4978808;28;20273;-70
2023/04/22 01:01:58;;;;;;;;;;;;;;;9.45;74.09;101264.66;4996168;28;19968;-69
2023/04/22 01:04:24;;;;;;;;;;;;;;;9.44;74.50;101262.97;4996029;28;19917;-69
2023/04/22 01:06:51;;;;;;;;;;;;;;;9.43;73.99;101258.66;4995960;28;19921;-71
2023/04/22 01:09:17;;;;;;;;;;;;;;;9.43;73.80;101257.81;4996129;28;19914;-69
2023/04/22 01:11:43;;;;;;;;;;;;;;;9.41;74.23;101257.13;4995948;28;19956;-70
2023/04/22 01:14:08;;;;;;;;;;;;;;;9.40;73.81;101248.31;4995985;28;19936;-70
2023/04/22 01:16:37;;;;;;;;;;;;;;;9.37;73.95;101253.91;4996007;28;19914;-70
2023/04/22 01:19:03;;;;;;;;;;;;;;;9.34;73.24;101243.56;4995856;28;20027;-69
2023/04/22 01:21:28;;;;;;;;;;;;;;;9.32;73.23;101250.84;4995899;28;20374;-70
2023/04/22 01:23:54;;;;;;;;;;;;;;;9.31;73.02;101251.81;4995800;28;20386;-70
2023/04/22 01:26:21;;;;;;;;;;;;;;;9.30;72.85;101256.31;4995693;28;19925;-69
2023/04/22 01:28:46;;;;;;;;;;;;;;;9.31;72.78;101257.13;4995544;28;20413;-71
2023/04/22 01:31:12;;;;;;;;;;;;;;;9.28;72.97;101257.44;4995748;28;19919;-69
2023/04/22 01:33:37;;;;;;;;;;;;;;;9.26;73.10;101256.72;4994506;28;19914;-69
2023/04/22 01:36:03;;;;;;;;;;;;;;;9.26;72.17;101248.75;4995504;28;19972;-70
2023/04/22 01:38:32;;;;;;;;;;;;;;;9.23;73.20;101236.56;4995471;28;19913;-69
2023/04/22 01:40:57;;;;;;;;;;;;;;;9.21;73.25;101235.03;4995435;28;19914;-70
2023/04/22 01:43:23;;;;;;;;;;;;;;;9.22;73.05;101236.69;4995987;28;20385;-71
2023/04/22 01:45:48;;;;;;;;;;;;;;;9.24;72.40;101235.56;4995815;28;19918;-70
2023/04/22 01:48:13;;;;;;;;;;;;;;;9.29;72.61;101227.22;4994989;28;19976;-71
2023/04/22 01:50:39;;;;;;;;;;;;;;;9.32;72.39;101234.88;4994917;28;20317;-70
2023/04/22 01:53:05;;;;;;;;;;;;;;;9.32;72.48;101234.88;4995197;28;19913;-71
2023/04/22 01:55:34;;;;;;;;;;;;;;;9.31;73.09;101228.75;4995087;28;19948;-71
2023/04/22 01:58:00;;;;;;;;;;;;;;;9.28;73.66;101236.16;4994981;28;19914;-69
2023/04/22 02:00:25;;;;;;;;;;;;;;;9.25;73.39;101228.44;4995212;28;19936;-72
2023/04/22 02:02:50;;;;;;;;;;;;;;;9.25;72.71;101224.00;4995398;28;19922;-70
2023/04/22 02:05:16;;;;;;;;;;;;;;;9.26;73.68;101227.50;4995100;28;20290;-69
2023/04/22 02:07:42;;;;;;;;;;;;;;;9.23;73.29;101228.59;4995121;28;20274;-70
2023/04/22 02:10:08;;;;;;;;;;;;;;;9.22;73.19;101228.72;4995030;28;19972;-70
2023/04/22 02:12:34;;;;;;;;;;;;;;;9.20;73.45;101225.38;4995095;28;20908;-70
2023/04/22 02:14:59;;;;;;;;;;;;;;;9.16;74.12;101237.28;4995154;28;19914;-73
2023/04/22 02:17:34;;;;;;;;;;;;;;;9.11;74.05;101229.75;4994793;28;19920;-72
2023/04/22 02:20:00;;;;;;;;;;;;;;;9.11;74.56;101231.56;4994856;28;20008;-71
2023/04/22 02:22:27;;;;;;;;;;;;;;;9.06;74.85;101229.34;4994629;28;20359;-72
2023/04/22 02:24:53;;;;;;;;;;;;;;;9.09;74.53;101233.53;4994696;28;19918;-72
2023/04/22 02:27:18;;;;;;;;;;;;;;;9.11;75.17;101236.88;4994625;28;20008;-73
2023/04/22 02:29:44;;;;;;;;;;;;;;;9.14;74.50;101237.41;4993132;28;19929;-72
2023/04/22 02:32:10;;;;;;;;;;;;;;;9.17;74.31;101238.97;4994681;28;20353;-71
2023/04/22 02:34:35;;;;;;;;;;;;;;;9.19;74.29;101234.34;4994570;28;19914;-71
2023/04/22 02:37:00;;;;;;;;;;;;;;;9.20;74.43;101241.31;4994346;28;20016;-72
2023/04/22 02:39:26;;;;;;;;;;;;;;;9.20;73.99;101233.34;4994383;28;20266;-73
2023/04/22 02:41:51;;;;;;;;;;;;;;;9.18;73.71;101237.97;4994367;28;19918;-74
2023/04/22 02:44:16;;;;;;;;;;;;;;;9.18;74.18;101219.38;4994436;28;20277;-71
2023/04/22 02:46:42;;;;;;;;;;;;;;;9.18;73.86;101238.81;4994445;28;20003;-73
2023/04/22 02:49:07;;;;;;;;;;;;;;;9.21;73.59;101232.38;4994258;28;20001;-69
2023/04/22 02:51:32;;;;;;;;;;;;;;;9.24;73.80;101221.44;4994292;28;19914;-70
2023/04/22 02:53:59;;;;;;;;;;;;;;;9.23;73.21;101225.09;4993953;28;19940;-74
2023/04/22 02:56:25;;;;;;;;;;;;;;;9.25;73.27;101223.13;4994024;28;19913;-73
2023/04/22 02:58:50;;;;;;;;;;;;;;;9.22;74.16;101223.41;4994152;28;20012;-73
2023/04/22 03:01:16;;;;;;;;;;;;;;;9.20;73.70;101223.56;4993905;28;19983;-73
2023/04/22 03:03:41;;;;;;;;;;;;;;;9.23;74.01;101222.44;4994009;28;19925;-72
2023/04/22 03:06:06;;;;;;;;;;;;;;;9.25;73.42;101226.66;4993697;28;19921;-70
2023/04/22 03:08:32;;;;;;;;;;;;;;;9.30;72.89;101226.22;4993821;28;19914;-71
2023/04/22 03:10:57;;;;;;;;;;;;;;;9.34;72.81;101222.28;4993984;28;19913;-69
2023/04/22 03:13:22;;;;;;;;;;;;;;;9.38;73.19;101223.69;4994039;28;20358;-72
2023/04/22 03:15:48;;;;;;;;;;;;;;;9.36;72.89;101219.50;4993895;28;19918;-73
2023/04/22 03:18:13;;;;;;;;;;;;;;;9.32;73.00;101227.75;4993598;28;19921;-73
2023/04/22 03:20:38;;;;;;;;;;;;;;;9.35;72.98;101228.44;4993689;28;19941;-72
2023/04/22 03:23:05;;;;;;;;;;;;;;;9.38;72.11;101223.69;4993629;28;19914;-70
2023/04/22 03:25:31;;;;;;;;;;;;;;;9.32;73.65;101224.25;4993770;28;20008;-69
2023/04/22 03:27:56;;;;;;;;;;;;;;;9.29;73.25;101225.38;4993744;28;20004;-73
2023/04/22 03:30:21;;;;;;;;;;;;;;;9.33;73.39;101223.28;4993607;28;20016;-73
2023/04/22 03:32:47;;;;;;;;;;;;;;;9.38;73.66;101220.19;4993679;28;19918;-70
2023/04/22 03:35:12;;;;;;;;;;;;;;;9.44;72.77;101219.59;4993990;28;19913;-70
2023/04/22 03:37:38;;;;;;;;;;;;;;;9.50;73.21;101224.34;4977812;28;20430;-74
2023/04/22 03:40:04;;;;;;;;;;;;;;;9.50;73.79;101219.84;5012955;28;19913;-70
2023/04/22 03:42:30;;;;;;;;;;;;;;;9.48;73.62;101219.16;5017917;28;19909;-70
2023/04/22 03:44:55;;;;;;;;;;;;;;;9.54;73.76;101223.06;5010588;28;19937;-74
2023/04/22 03:47:21;;;;;;;;;;;;;;;9.63;73.11;101217.72;5004715;28;20337;-72
2023/04/22 03:49:46;;;;;;;;;;;;;;;9.73;72.48;101219.50;5000125;28;19913;-74
2023/04/22 03:52:11;;;;;;;;;;;;;;;9.79;73.00;101219.75;4998716;28;19945;-68
2023/04/22 03:54:36;;;;;;;;;;;;;;;9.85;72.59;101221.84;4999302;28;19914;-71
2023/04/22 03:57:02;;;;;;;;;;;;;;;9.94;71.88;101220.13;5002382;28;19913;-70
2023/04/22 03:59:27;;;;;;;;;;;;;;;9.90;72.89;101224.91;5001634;28;19914;-72
2023/04/22 04:01:53;;;;;;;;;;;;;;;9.92;72.25;101222.09;4993180;28;19914;-71
2023/04/22 04:04:18;;;;;;;;;;;;;;;9.89;72.87;101211.75;4993282;28;20017;-72
2023/04/22 04:06:44;;;;;;;;;;;;;;;9.88;73.05;101221.56;4975560;28;19913;-72
2023/04/22 04:09:10;;;;;;;;;;;;;;;9.90;72.09;101218.75;4993230;28;19914;-75
2023/04/22 04:11:36;;;;;;;;;;;;;;;9.98;72.24;101216.19;4994345;28;19913;-71
2023/04/22 04:14:02;;;;;;;;;;;;;;;10.12;71.53;101217.50;4999629;28;19924;-72
2023/04/22 04:16:27;;;;;;;;;;;;;;;10.24;70.77;101206.53;4999663;28;19921;-69
2023/04/22 04:18:53;;;;;;;;;;;;;;;10.29;70.34;101207.91;4999279;28;19914;-71
2023/04/22 04:21:18;;;;;;;;;;;;;;;10.22;70.31;101210.34;4999154;28;19914;-71
2023/04/22 04:23:43;;;;;;;;;;;;;;;10.00;71.06;101208.88;5000165;28;19913;-71
2023/04/22 04:26:09;;;;;;;;;;;;;;;9.78;72.37;101220.75;4999728;28;20325;-73
2023/04/22 04:28:35;;;;;;;;;;;;;;;9.61;73.53;101216.19;4981841;28;19914;-72
2023/04/22 04:31:03;;;;;;;;;;;;;;;9.48;73.13;101213.84;4994843;28;19918;-73
2023/04/22 04:33:30;;;;;;;;;;;;;;;9.37;73.68;101211.38;4980460;28;20309;-71
2023/04/22 04:35:57;;;;;;;;;;;;;;;9.25;74.49;101210.72;4979849;28;19914;-73
2023/04/22 04:38:23;;;;;;;;;;;;;;;9.17;74.74;101207.06;4979988;28;20262;-70
2023/04/22 04:40:49;;;;;;;;;;;;;;;9.12;74.75;101207.50;4979997;28;19914;-73
2023/04/22 04:43:15;;;;;;;;;;;;;;;9.09;74.62;101206.94;4980054;28;19921;-72
2023/04/22 04:45:45;;;;;;;;;;;;;;;9.02;74.98;101205.84;4980113;28;19914;-71
2023/04/22 04:48:11;;;;;;;;;;;;;;;8.98;74.77;101198.16;4979774;28;19914;-71
2023/04/22 04:50:37;;;;;;;;;;;;;;;9.00;74.81;101203.34;4979384;28;19984;-71
2023/04/22 04:53:02;;;;;;;;;;;;;;;9.00;75.60;101203.34;4979960;28;20302;-73
2023/04/22 04:55:28;;;;;;;;;;;;;;;9.10;75.71;101198.84;4979779;28;19947;-72
2023/04/22 04:57:53;;;;;;;;;;;;;;;9.15;75.30;101201.06;4981498;28;20384;-71
2023/04/22 05:00:19;;;;;;;;;;;;;;;9.22;75.20;101197.69;4986575;28;19937;-70
2023/04/22 05:02:44;;;;;;;;;;;;;;;9.28;73.77;101190.97;4990139;28;19960;-70
2023/04/22 05:05:10;;;;;;;;;;;;;;;9.34;74.03;101195.72;4983840;28;19914;-74
2023/04/22 05:07:35;;;;;;;;;;;;;;;9.41;73.56;101196.81;4982573;28;19970;-70
2023/04/22 05:10:02;;;;;;;;;;;;;;;9.44;74.26;101193.84;4987613;28;19953;-74
2023/04/22 05:12:28;;;;;;;;;;;;;;;9.53;73.38;101189.47;4981985;28;19965;-71
2023/04/22 05:14:53;;;;;;;;;;;;;;;9.54;74.02;101194.69;4980075;28;19918;-70
2023/04/22 05:17:19;;;;;;;;;;;;;;;9.54;74.31;101197.34;4979849;28;19920;-72
2023/04/22 05:19:44;;;;;;;;;;;;;;;9.59;73.72;101189.75;4977962;28;19921;-74
2023/04/22 05:22:10;;;;;;;;;;;;;;;9.63;73.63;101204.44;4979386;28;19957;-72
2023/04/22 05:24:35;;;;;;;;;;;;;;;9.71;73.02;101205.53;4975758;28;19914;-70
2023/04/22 05:27:00;;;;;;;;;;;;;;;9.75;72.98;101193.59;4976568;28;19958;-72
2023/04/22 05:29:26;;;;;;;;;;;;;;;9.80;72.77;101194.81;4974943;28;19918;-73
2023/04/22 05:31:51;;;;;;;;;;;;;;;9.84;72.22;101198.06;4976573;28;19921;-71
2023/04/22 05:34:17;;;;;;;;;;;;;;;9.83;71.64;101194.56;4974801;28;19937;-70
2023/04/22 05:36:42;;;;;;;;;;;;;;;9.85;71.59;101197.91;4976172;28;19921;-72
2023/04/22 05:39:07;;;;;;;;;;;;;;;9.90;71.93;101192.16;4976075;28;20012;-70
2023/04/22 05:41:33;;;;;;;;;;;;;;;9.90;71.75;101192.16;4976406;28;20020;-72
2023/04/22 05:43:58;;;;;;;;;;;;;;;9.87;71.63;101192.44;4976071;28;19915;-74
2023/04/22 05:46:24;;;;;;;;;;;;;;;9.84;70.90;101195.41;4976343;28;19969;-73
2023/04/22 05:48:58;;;;;;;;;;;;;;;9.85;71.40;101189.09;4976159;28;20025;-74
2023/04/22 05:51:23;;;;;;;;;;;;;;;9.87;70.80;101192.44;4976136;28;20255;-71
2023/04/22 05:53:49;;;;;;;;;;;;;;;9.84;71.94;101190.09;4976019;28;19921;-73
2023/04/22 05:56:14;;;;;;;;;;;;;;;9.86;71.41;101186.28;4975673;28;19914;-73
2023/04/22 05:58:39;;;;;;;;;;;;;;;9.92;71.55;101185.69;4975739;28;19914;-70
2023/04/22 06:01:05;;;;;;;;;;;;;;;9.98;70.38;101184.25;4975498;28;20012;-72
2023/04/22 06:03:30;;;;;;;;;;;;;;;9.94;70.16;101183.72;4968557;28;19933;-72
2023/04/22 06:10:46;;;;;;;;;;;;;;;9.99;70.60;101180.59;4975201;28;20004;-73
2023/04/22 06:13:11;;;;;;;;;;;;;;;10.02;70.25;101177.66;4975322;28;19925;-71
2023/04/22 06:15:36;;;;;;;;;;;;;;;10.02;69.83;101180.31;4975407;28;19921;-73
2023/04/22 06:18:02;;;;;;;;;;;;;;;10.04;69.89;101175.66;4975358;28;19921;-71
2023/04/22 06:20:27;;;;;;;;;;;;;;;10.06;69.88;101175.53;4977339;28;19920;-71
2023/04/22 06:22:52;;;;;;;;;;;;;;;10.06;70.10;101181.69;4975733;28;19957;-70
2023/04/22 06:25:18;;;;;;;;;;;;;;;10.13;69.79;101182.78;4976939;28;19984;-74
2023/04/22 06:27:43;;;;;;;;;;;;;;;10.12;69.06;101181.09;4976439;28;19918;-73
2023/04/22 06:30:10;;;;;;;;;;;;;;;10.12;69.82;101181.09;4985514;28;19925;-69
2023/04/22 06:32:36;;;;;;;;;;;;;;;10.16;69.46;101185.13;4994615;28;19925;-72
2023/04/22 06:35:01;;;;;;;;;;;;;;;10.14;69.34;101179.13;4995057;28;19984;-70
2023/04/22 06:37:26;;;;;;;;;;;;;;;10.19;69.58;101171.53;4994779;28;19914;-70
2023/04/22 06:39:52;;;;;;;;;;;;;;;10.21;70.02;101177.56;4994779;28;19949;-69
2023/04/22 06:42:17;;;;;;;;;;;;;;;10.23;69.63;101175.59;4995885;28;19945;-71
2023/04/22 06:44:42;;;;;;;;;;;;;;;10.26;69.90;101169.13;4993463;28;19964;-72
2023/04/22 06:47:08;;;;;;;;;;;;;;;10.30;69.92;101173.16;4985191;28;20441;-70
2023/04/22 06:49:37;;;;;;;;;;;;;;;10.39;69.43;101171.41;4986221;28;19914;-71
2023/04/22 06:52:02;;;;;;;;;;;;;;;10.40;69.42;101165.09;4987478;28;19918;-70
2023/04/22 06:54:27;;;;;;;;;;;;;;;10.48;69.57;101154.53;4989337;28;19914;-68
2023/04/22 06:56:53;;;;;;;;;;;;;;;10.57;68.93;101164.28;4990177;28;19914;-73
2023/04/22 06:59:18;;;;;;;;;;;;;;;10.56;68.43;101159.94;5004372;28;20375;-70
2023/04/22 07:01:44;;;;;;;;;;;;;;;10.57;68.41;101158.94;4996033;28;19917;-70
2023/04/22 07:04:10;;;;;;;;;;;;;;;10.62;68.29;101161.97;5014153;28;19943;-69
2023/04/22 07:06:35;;;;;;;;;;;;;;;10.58;69.08;101155.28;5014079;28;19914;-69
2023/04/22 07:09:00;;;;;;;;;;;;;;;10.61;68.47;101160.31;4997718;28;19921;-67
2023/04/22 07:11:26;;;;;;;;;;;;;;;10.62;68.92;101158.47;4980463;28;19914;-68
2023/04/22 07:13:51;;;;;;;;;;;;;;;10.67;68.15;101153.53;4984443;28;20370;-69
2023/04/22 07:16:17;;;;;;;;;;;;;;;10.65;68.76;101156.34;4980911;28;20009;-68
2023/04/22 07:18:42;;;;;;;;;;;;;;;10.63;68.14;101153.00;4982880;28;20304;-70
2023/04/22 07:21:07;;;;;;;;;;;;;;;10.75;68.44;101153.63;4994362;28;20272;-71
2023/04/22 07:23:33;;;;;;;;;;;;;;;10.79;68.20;101153.16;4982125;28;19980;-70
2023/04/22 07:25:58;;;;;;;;;;;;;;;10.89;67.74;101154.88;4987960;28;19960;-75
2023/04/22 07:28:24;;;;;;;;;;;;;;;10.95;67.59;101152.41;4986964;28;20373;-70
2023/04/22 07:30:50;;;;;;;;;;;;;;;10.93;67.13;101135.75;4988632;28;20301;-71
2023/04/22 07:33:15;;;;;;;;;;;;;;;11.00;67.17;101141.31;4996346;28;20016;-70
2023/04/22 07:35:41;;;;;;;;;;;;;;;11.11;66.76;101146.38;4974341;28;20013;-70
2023/04/22 07:38:06;;;;;;;;;;;;;;;11.11;66.72;101141.88;4973989;28;19914;-71
2023/04/22 07:40:31;;;;;;;;;;;;;;;11.14;66.74;101146.06;4974218;28;19918;-73
2023/04/22 07:42:57;;;;;;;;;;;;;;;11.20;65.98;101140.09;4974539;28;19915;-73
2023/04/22 07:45:22;;;;;;;;;;;;;;;11.24;66.26;101138.78;4973898;28;19914;-71
2023/04/22 07:47:47;;;;;;;;;;;;;;;11.26;66.00;101144.78;4973182;28;19915;-75
2023/04/22 07:50:13;;;;;;;;;;;;;;;11.22;66.22;101143.44;4956953;28;19914;-72
2023/04/22 07:52:38;;;;;;;;;;;;;;;11.26;65.97;101147.47;4973944;28;20372;-68
2023/04/22 07:55:04;;;;;;;;;;;;;;;11.34;65.94;101138.69;5009361;28;20063;-70
2023/04/22 07:57:29;;;;;;;;;;;;;;;11.40;65.56;101135.38;5012683;28;19913;-69
2023/04/22 07:59:54;;;;;;;;;;;;;;;11.51;65.30;101136.94;4995541;28;19996;-68
2023/04/22 08:02:20;;;;;;;;;;;;;;;11.63;64.99;101135.66;4983774;28;20365;-69
2023/04/22 08:04:46;;;;;;;;;;;;;;;11.74;64.89;101138.03;4985756;28;19913;-70
2023/04/22 08:07:13;;;;;;;;;;;;;;;11.76;64.04;101141.38;4993086;28;19918;-70
2023/04/22 08:09:39;;;;;;;;;;;;;;;11.82;64.12;101132.75;4993074;28;19920;-70
2023/04/22 08:12:04;;;;;;;;;;;;;;;11.88;63.93;101133.97;4992960;28;19914;-68
2023/04/22 08:14:29;;;;;;;;;;;;;;;11.93;63.31;101137.81;4984615;28;19918;-68
2023/04/22 08:16:55;;;;;;;;;;;;;;;11.94;63.56;101136.81;4973547;28;19942;-68
2023/04/22 08:19:20;;;;;;;;;;;;;;;12.00;63.43;101138.81;4972707;28;20033;-68
2023/04/22 08:21:47;;;;;;;;;;;;;;;12.03;63.08;101143.84;5012981;28;19956;-67
2023/04/22 08:24:12;;;;;;;;;;;;;;;12.08;62.67;101144.19;5012745;28;19924;-67
2023/04/22 08:26:38;;;;;;;;;;;;;;;12.13;62.72;101137.50;5012991;28;19913;-69
2023/04/22 08:29:04;;;;;;;;;;;;;;;12.23;62.46;101144.41;5012957;28;19917;-67
2023/04/22 08:31:29;;;;;;;;;;;;;;;12.25;61.76;101145.06;5012601;28;20287;-70
2023/04/22 08:33:55;;;;;;;;;;;;;;;12.28;61.98;101134.06;5011576;28;19917;-68
2023/04/22 08:36:22;;;;;;;;;;;;;;;12.38;61.22;101131.22;5012078;28;19975;-69
2023/04/22 08:38:50;;;;;;;;;;;;;;;12.40;61.28;101130.03;5012112;28;20415;-67
2023/04/22 08:41:17;;;;;;;;;;;;;;;12.49;61.46;101138.94;5006918;28;19921;-68
2023/04/22 08:43:44;;;;;;;;;;;;;;;12.59;61.30;101133.41;4992616;28;20266;-69
2023/04/22 08:46:09;;;;;;;;;;;;;;;12.65;60.18;101135.41;4984419;28;19922;-69
2023/04/22 08:48:35;;;;;;;;;;;;;;;12.68;60.38;101130.56;4981614;28;19980;-69
2023/04/22 08:51:01;;;;;;;;;;;;;;;12.70;59.98;101127.72;4992717;28;19913;-70
2023/04/22 08:53:26;;;;;;;;;;;;;;;12.78;59.99;101133.09;4992730;28;20367;-70
2023/04/22 08:55:54;;;;;;;;;;;;;;;12.89;60.25;101121.22;4992583;28;19922;-68
2023/04/22 08:58:20;;;;;;;;;;;;;;;12.94;59.25;101132.22;4993531;28;19914;-72
2023/04/22 09:00:46;;;;;;;;;;;;;;;12.94;59.19;101132.22;4995963;28;19921;-69
2023/04/22 09:03:12;;;;;;;;;;;;;;;13.02;58.92;101129.56;4995961;28;20369;-69
2023/04/22 09:05:39;;;;;;;;;;;;;;;13.12;59.07;101122.19;4995985;28;19914;-70
2023/04/22 09:08:06;;;;;;;;;;;;;;;13.15;58.54;101121.84;4995692;28;19914;-68
2023/04/22 09:10:32;;;;;;;;;;;;;;;13.22;58.36;101130.88;4994584;28;20076;-69
2023/04/22 09:12:57;;;;;;;;;;;;;;;13.29;58.53;101137.19;4994810;28;19961;-67
2023/04/22 09:15:23;;;;;;;;;;;;;;;13.33;58.28;101132.38;4995773;28;19921;-69
2023/04/22 09:17:50;;;;;;;;;;;;;;;13.31;57.92;101131.72;4995918;28;19913;-69
2023/04/22 09:20:16;;;;;;;;;;;;;;;13.29;58.32;101133.69;4978327;28;19921;-66
2023/04/22 09:22:43;;;;;;;;;;;;;;;13.39;57.77;101130.84;4995575;28;19917;-67
2023/04/22 09:25:18;;;;;;;;;;;;;;;13.50;57.60;101128.63;4996060;28;19936;-69
2023/04/22 09:28:02;;;;;;;;;;;;;;;13.55;57.46;101117.38;4995745;28;19957;-68
2023/04/22 09:30:29;;;;;;;;;;;;;;;13.54;57.35;101115.72;4996434;28;19964;-70
2023/04/22 09:32:58;;;;;;;;;;;;;;;13.55;57.27;101120.06;4995080;28;20283;-70
2023/04/22 09:35:25;;;;;;;;;;;;;;;13.53;55.78;101112.22;4979039;28;19925;-69
2023/04/22 09:37:51;;;;;;;;;;;;;;;13.48;56.24;101111.91;4995814;28;20389;-70
2023/04/22 09:40:18;;;;;;;;;;;;;;;13.50;56.48;101111.72;4996861;28;19914;-69
2023/04/22 09:42:48;;;;;;;;;;;;;;;13.56;56.89;101111.88;4995634;28;20316;-70
2023/04/22 09:45:23;;;;;;;;;;;;;;;13.66;56.15;101116.19;4978288;28;19920;-71
2023/04/22 09:47:48;;;;;;;;;;;;;;;13.66;56.19;101100.97;4978210;28;19914;-69
2023/04/22 09:50:14;;;;;;;;;;;;;;;13.73;55.56;101101.94;4995264;28;20352;-68
2023/04/22 09:52:39;;;;;;;;;;;;;;;13.74;55.34;101095.56;4995167;28;20460;-67
2023/04/22 09:55:07;;;;;;;;;;;;;;;13.74;55.41;101098.25;4995354;28;20322;-66
2023/04/22 09:57:32;;;;;;;;;;;;;;;13.85;55.88;101100.53;4995563;28;19924;-69
2023/04/22 09:59:58;;;;;;;;;;;;;;;13.91;56.06;101099.84;4995479;28;20339;-67
2023/04/22 10:02:29;;;;;;;;;;;;;;;13.95;55.99;101094.97;5009931;28;19960;-67
2023/04/22 10:04:56;;;;;;;;;;;;;;;13.99;54.66;101090.09;5004560;28;19925;-68
2023/04/22 10:07:21;;;;;;;;;;;;;;;14.02;55.03;101095.09;5000598;28;19976;-67
2023/04/22 10:09:47;;;;;;;;;;;;;;;13.97;54.71;101086.75;4996106;28;20365;-68
2023/04/22 10:12:13;;;;;;;;;;;;;;;14.03;54.48;101076.16;4995403;28;19914;-67
2023/04/22 10:14:38;;;;;;;;;;;;;;;14.07;53.79;101082.81;4995100;28;19914;-67
2023/04/22 10:17:04;;;;;;;;;;;;;;;14.04;52.79;101088.53;4995138;28;20013;-69
2023/04/22 10:19:31;;;;;;;;;;;;;;;14.01;52.73;101078.19;4994961;28;19957;-70
2023/04/22 10:21:59;;;;;;;;;;;;;;;14.03;51.68;101080.69;4995705;28;19942;-68
2023/04/22 10:24:26;;;;;;;;;;;;;;;14.03;52.29;101075.31;4995574;28;19924;-68
2023/04/22 10:26:58;;;;;;;;;;;;;;;14.08;51.32;101068.41;4979891;28;19937;-68
2023/04/22 10:29:34;;;;;;;;;;;;;;;14.11;51.14;101067.22;4996193;28;19918;-65
2023/04/22 10:32:04;;;;;;;;;;;;;;;14.17;50.69;101072.72;4995632;28;19918;-68
2023/04/22 10:34:33;;;;;;;;;;;;;;;14.27;50.29;101064.44;4995274;28;20028;-67
2023/04/22 10:37:11;;;;;;;;;;;;;;;14.34;50.32;101060.03;4977929;28;20344;-68
2023/04/22 10:39:37;;;;;;;;;;;;;;;14.46;49.62;101061.31;4994765;28;19976;-67
2023/04/22 10:42:05;;;;;;;;;;;;;;;14.59;49.18;101063.38;4994229;28;20012;-68
2023/04/22 10:44:46;;;;;;;;;;;;;;;14.68;48.33;101064.13;4994527;28;19937;-70
2023/04/22 10:47:11;;;;;;;;;;;;;;;14.62;48.06;101048.75;4994000;28;20397;-67
2023/04/22 10:49:36;;;;;;;;;;;;;;;14.70;48.47;101048.69;4994263;28;19918;-66
2023/04/22 10:52:04;;;;;;;;;;;;;;;14.83;48.51;101057.78;4994196;28;19918;-69
2023/04/22 10:54:30;;;;;;;;;;;;;;;14.90;48.09;101057.88;4993953;28;19914;-68
2023/04/22 10:57:10;;;;;;;;;;;;;;;14.94;48.16;101059.16;4994155;28;19913;-67
2023/04/22 10:59:45;;;;;;;;;;;;;;;14.98;48.54;101055.09;4993890;28;19915;-68
2023/04/22 11:02:12;;;;;;;;;;;;;;;14.90;48.15;101052.50;4982347;28;19918;-67
2023/04/22 11:04:38;;;;;;;;;;;;;;;14.87;49.28;101052.88;4982195;28;19914;-68
2023/04/22 11:07:15;;;;;;;;;;;;;;;14.77;49.26;101057.69;4993446;28;19921;-69
2023/04/22 11:09:42;;;;;;;;;;;;;;;14.77;49.60;101049.63;4994185;28;19949;-68
2023/04/22 11:12:26;;;;;;;;;;;;;;;14.76;48.95;101053.34;4989282;28;19961;-68
2023/04/22 11:14:51;;;;;;;;;;;;;;;14.81;50.38;101057.13;4984597;28;19918;-68
2023/04/22 11:17:18;;;;;;;;;;;;;;;14.85;50.27;101061.09;4979458;28;19921;-68
2023/04/22 11:19:43;;;;;;;;;;;;;;;14.79;50.31;101061.84;4974341;28;20431;-68
2023/04/22 11:22:09;;;;;;;;;;;;;;;14.75;50.64;101054.34;4984471;28;19918;-70
2023/04/22 11:24:35;;;;;;;;;;;;;;;14.76;50.90;101053.34;4979426;28;19914;-69
2023/04/22 11:27:00;;;;;;;;;;;;;;;14.69;50.81;101055.88;4974241;28;19922;-67
2023/04/22 11:29:25;;;;;;;;;;;;;;;14.72;50.00;101049.34;4959129;28;19918;-68
2023/04/22 11:31:51;;;;;;;;;;;;;;;14.61;49.57;101039.91;4979224;28;19925;-68
2023/04/22 11:34:17;;;;;;;;;;;;;;;14.74;50.40;101036.56;4974051;28;20029;-69
2023/04/22 11:36:44;;;;;;;;;;;;;;;14.79;49.66;101037.72;4973995;28;19924;-69
2023/04/22 11:39:13;;;;;;;;;;;;;;;14.77;49.55;101029.03;4974138;28;20016;-69
2023/04/22 11:41:42;;;;;;;;;;;;;;;14.88;49.67;101022.38;4956596;28;19997;-68
2023/04/22 11:44:08;;;;;;;;;;;;;;;14.91;48.83;101022.00;4973843;28;19914;-66
2023/04/22 11:46:42;;;;;;;;;;;;;;;15.02;48.21;101032.25;4979500;28;20433;-68
2023/04/22 11:49:11;;;;;;;;;;;;;;;15.07;47.26;101011.09;4984633;28;19918;-69
2023/04/22 11:51:50;;;;;;;;;;;;;;;15.10;47.66;101016.09;4980103;28;20377;-69
2023/04/22 11:54:15;;;;;;;;;;;;;;;15.14;47.89;101016.53;4973956;28;20440;-69
2023/04/22 11:56:40;;;;;;;;;;;;;;;15.16;47.26;101018.00;4973947;28;19945;-65
2023/04/22 11:59:06;;;;;;;;;;;;;;;15.15;47.96;101012.84;4974343;28;19941;-69
2023/04/22 12:01:31;;;;;;;;;;;;;;;15.19;48.06;101023.00;4973162;28;19914;-70
2023/04/22 12:04:00;;;;;;;;;;;;;;;15.21;47.86;101011.25;4973076;28;20227;-70
2023/04/22 12:06:28;;;;;;;;;;;;;;;15.26;47.83;101017.72;4973937;28;20365;-70
2023/04/22 12:08:54;;;;;;;;;;;;;;;15.30;48.10;101013.63;4973898;28;20443;-71
2023/04/22 12:11:20;;;;;;;;;;;;;;;15.37;47.98;101016.44;4982613;28;19914;-69
2023/04/22 12:13:46;;;;;;;;;;;;;;;15.31;47.73;101025.19;4990237;28;19941;-66
2023/04/22 12:16:17;;;;;;;;;;;;;;;15.09;46.97;101009.06;4992658;28;19968;-69
2023/04/22 12:18:48;;;;;;;;;;;;;;;15.01;46.82;101009.13;4992493;28;20253;-69
2023/04/22 12:21:15;;;;;;;;;;;;;;;15.05;46.26;101007.75;4993064;28;19917;-68
2023/04/22 12:23:44;;;;;;;;;;;;;;;15.11;46.20;101000.81;4992830;28;19914;-69
2023/04/22 12:26:10;;;;;;;;;;;;;;;15.18;46.02;101001.72;4992737;28;20008;-67
2023/04/22 12:28:36;;;;;;;;;;;;;;;15.12;45.84;100989.06;4992499;28;19964;-68
2023/04/22 12:31:01;;;;;;;;;;;;;;;15.17;45.47;100987.47;4992725;28;19937;-68
2023/04/22 12:33:27;;;;;;;;;;;;;;;15.21;44.88;101001.34;4994342;28;19918;-70
2023/04/22 12:35:53;;;;;;;;;;;;;;;15.24;45.03;100992.09;4996501;28;19936;-68
2023/04/22 12:38:18;;;;;;;;;;;;;;;15.21;44.88;101005.88;4996561;28;19953;-67
2023/04/22 12:40:43;;;;;;;;;;;;;;;15.12;44.20;101003.31;4996602;28;19914;-68